Terminal Aerodrome Forecast
Issued by NWS

Home | Current Version | Previous Version | Text Only | Print | Product List | Glossary Off
Versions: 1 2 3 4 5 6 7 8 9 10 11 12 13 14 15 16 17 18 19 20 21 22 23 24 25 26 27 28 29 30 31 32 33 34 35 36 37 38 39 40 41 42 43 44 45 46 47 48

162
FTUS43 KLOT 192340
TAFGYY
TAF
KGYY 192340Z 2000/2024 04007KT P6SM FEW050 SCT250
     FM200300 13005KT 6SM -SHRA VCTS SCT040 BKN100CB
      TEMPO 2003/2004 33015G25KT 3SM -TSRA BKN050 BKN100CB
     FM200600 18005KT P6SM SCT100 BKN250 PROB30 2010/2013 3SM TSRA
      SCT020 OVC060CB
     FM201500 22010KT P6SM SCT040 BKN250
     FM202100 29011KT P6SM SCT040 SCT150=

USA.gov is the U.S. government's official web portal to all federal, state and local government web resources and services.